createdAt,value
2023-03-30T00:01:17.134Z,97971.94
2023-03-30T00:03:45.504Z,97967.56
2023-03-30T00:06:20.817Z,97974.03
2023-03-30T00:08:53.481Z,97976.13
2023-03-30T00:11:23.084Z,97974.72
2023-03-30T00:13:53.133Z,97976.44
2023-03-30T00:16:20.694Z,97971.63
2023-03-30T00:18:47.501Z,97977.97
2023-03-30T00:21:18.085Z,97969.00
2023-03-30T00:23:48.323Z,97964.94
2023-03-30T00:26:15.125Z,97968.88
2023-03-30T00:28:41.558Z,97972.78
2023-03-30T00:31:10.579Z,97952.22
2023-03-30T00:33:45.726Z,97941.88
2023-03-30T00:36:13.957Z,97933.22
2023-03-30T00:38:40.916Z,97923.59
2023-03-30T00:41:07.718Z,97933.06
2023-03-30T00:43:34.357Z,97943.50
2023-03-30T00:46:01.084Z,97963.34
2023-03-30T00:48:32.078Z,97963.47
2023-03-30T00:51:03.664Z,97970.13
2023-03-30T00:53:34.771Z,97968.75
2023-03-30T00:56:03.145Z,97970.41
2023-03-30T00:58:31.206Z,97969.69
2023-03-30T01:01:02.031Z,97972.53
2023-03-30T01:03:32.613Z,97963.34
2023-03-30T01:06:01.716Z,97949.03
2023-03-30T01:08:32.366Z,97961.13
2023-03-30T01:11:01.429Z,97962.66
2023-03-30T01:13:35.706Z,97958.47
2023-03-30T01:16:35.057Z,97954.09
2023-03-30T01:19:18.803Z,97949.81
2023-03-30T01:22:29.508Z,97934.56
2023-03-30T01:25:34.096Z,97942.31
2023-03-30T01:28:26.040Z,97952.25
2023-03-30T01:31:16.008Z,97954.72
2023-03-30T01:34:19.307Z,97968.16
2023-03-30T01:37:00.382Z,97976.50
2023-03-30T01:39:35.072Z,97985.59
2023-03-30T01:42:34.762Z,97987.69
2023-03-30T01:45:07.070Z,97979.28
2023-03-30T01:48:05.367Z,97951.25
2023-03-30T01:50:44.270Z,97924.06
2023-03-30T01:53:25.657Z,97906.38
2023-03-30T01:56:03.614Z,97907.16
2023-03-30T01:58:43.725Z,97927.69
2023-03-30T02:01:14.332Z,97931.94
2023-03-30T02:03:43.064Z,97943.75
2023-03-30T02:06:12.907Z,97946.84
2023-03-30T02:08:41.047Z,97956.03
2023-03-30T02:11:07.775Z,97969.09
2023-03-30T02:13:37.554Z,97977.31
2023-03-30T02:16:09.507Z,97963.94
2023-03-30T02:18:38.730Z,97933.69
2023-03-30T02:21:05.799Z,97923.53
2023-03-30T02:23:37.082Z,97911.09
2023-03-30T02:26:04.702Z,97920.53
2023-03-30T02:28:31.181Z,97935.63
2023-03-30T02:30:57.898Z,97955.69
2023-03-30T02:33:50.350Z,97976.91
2023-03-30T02:36:52.020Z,97970.41
2023-03-30T02:39:44.926Z,97977.25
2023-03-30T02:42:29.856Z,97973.66
2023-03-30T02:45:02.326Z,97969.75
2023-03-30T02:47:46.327Z,97978.50
2023-03-30T02:50:18.106Z,97978.22
2023-03-30T02:53:01.916Z,97958.53
2023-03-30T02:55:45.932Z,97968.00
2023-03-30T02:58:37.897Z,97952.19
2023-03-30T03:01:13.902Z,97939.59
2023-03-30T03:03:58.204Z,97923.47
2023-03-30T03:06:27.730Z,97903.59
2023-03-30T03:08:56.199Z,97898.25
2023-03-30T03:11:27.059Z,97893.63
2023-03-30T03:13:53.671Z,97894.72
2023-03-30T03:16:20.538Z,97894.56
2023-03-30T03:19:04.594Z,97887.38
2023-03-30T03:21:31.094Z,97891.44
2023-03-30T03:23:57.576Z,97887.59
2023-03-30T03:26:33.786Z,97889.19
2023-03-30T03:29:00.220Z,97876.38
2023-03-30T03:31:27.390Z,97875.59
2023-03-30T03:33:53.994Z,97861.66
2023-03-30T03:36:26.596Z,97861.09
2023-03-30T03:38:53.469Z,97859.41
2023-03-30T03:41:20.218Z,97846.91
2023-03-30T03:43:46.967Z,97846.16
2023-03-30T03:46:15.842Z,97838.41
2023-03-30T03:48:42.806Z,97829.38
2023-03-30T03:51:09.858Z,97833.56
2023-03-30T03:53:36.758Z,97844.78
2023-03-30T03:56:07.470Z,97845.34
2023-03-30T03:58:34.305Z,97846.56
2023-03-30T04:01:02.384Z,97845.34
2023-03-30T04:03:29.656Z,97837.91
2023-03-30T04:06:00.872Z,97852.09
2023-03-30T04:08:28.593Z,97847.84
2023-03-30T04:11:11.728Z,97852.88
2023-03-30T04:14:06.031Z,97862.41
2023-03-30T04:16:51.980Z,97858.38
2023-03-30T04:19:41.984Z,97872.34
2023-03-30T04:22:26.470Z,97874.81
2023-03-30T04:25:08.538Z,97872.09
2023-03-30T04:27:59.359Z,97867.38
2023-03-30T04:30:45.616Z,97850.72
2023-03-30T04:33:46.997Z,97853.16
2023-03-30T04:36:35.731Z,97850.91
2023-03-30T04:39:22.578Z,97844.28
2023-03-30T04:42:04.139Z,97857.28
2023-03-30T04:44:47.229Z,97867.28
2023-03-30T04:47:35.225Z,97877.75
2023-03-30T04:50:22.332Z,97883.53
2023-03-30T04:53:07.471Z,97899.91
2023-03-30T04:55:56.834Z,97897.28
2023-03-30T04:58:25.998Z,97884.59
2023-03-30T05:01:18.520Z,97893.13
2023-03-30T05:04:05.356Z,97894.72
2023-03-30T05:06:57.287Z,97895.16
2023-03-30T05:09:31.596Z,97894.56
2023-03-30T05:12:24.168Z,97917.06
2023-03-30T05:15:03.496Z,97935.94
2023-03-30T05:17:35.799Z,97953.00
2023-03-30T05:20:20.220Z,97976.91
2023-03-30T05:23:24.335Z,97974.25
2023-03-30T05:26:04.512Z,97981.94
2023-03-30T05:28:57.042Z,97986.47
2023-03-30T05:31:52.963Z,97991.75
2023-03-30T05:34:25.163Z,97988.50
2023-03-30T05:37:01.266Z,97985.63
2023-03-30T05:39:37.131Z,97966.28
2023-03-30T05:42:19.739Z,97981.31
2023-03-30T05:44:54.825Z,97989.81
2023-03-30T05:47:21.976Z,97990.00
2023-03-30T05:50:09.299Z,97995.88
2023-03-30T05:52:47.692Z,97992.88
2023-03-30T05:55:49.866Z,97992.28
2023-03-30T05:58:34.672Z,97993.66
2023-03-30T06:01:15.632Z,97985.34
2023-03-30T06:03:44.580Z,97983.72
2023-03-30T06:06:12.127Z,97973.56
2023-03-30T06:08:42.026Z,97972.56
2023-03-30T06:11:13.618Z,97965.47
2023-03-30T06:13:45.619Z,97953.94
2023-03-30T06:16:12.195Z,97941.72
2023-03-30T06:18:39.015Z,97947.44
2023-03-30T06:21:08.961Z,97947.06
2023-03-30T06:23:52.557Z,97949.28
2023-03-30T06:26:21.947Z,97947.66
2023-03-30T06:28:48.895Z,97927.94
2023-03-30T06:31:16.455Z,97914.34
2023-03-30T06:33:44.412Z,97914.13
2023-03-30T06:36:13.196Z,97917.97
2023-03-30T06:38:43.536Z,97922.25
2023-03-30T06:41:11.887Z,97913.63
2023-03-30T06:43:41.692Z,97929.06
2023-03-30T06:46:14.846Z,97938.19
2023-03-30T06:48:45.707Z,97935.94
2023-03-30T06:51:37.744Z,97927.00
2023-03-30T06:54:06.226Z,97925.59
2023-03-30T06:56:33.287Z,97920.50
2023-03-30T06:59:07.573Z,97838.88
2023-03-30T07:01:54.084Z,97834.63
2023-03-30T07:04:31.358Z,97889.63
2023-03-30T07:07:14.634Z,97894.16
2023-03-30T07:09:41.909Z,97892.03
2023-03-30T07:12:08.621Z,97907.75
2023-03-30T07:14:35.365Z,97899.19
2023-03-30T07:17:02.274Z,97903.28
2023-03-30T07:19:28.818Z,97887.28
2023-03-30T07:21:56.287Z,97884.72
2023-03-30T07:24:26.121Z,97886.19
2023-03-30T07:26:52.915Z,97896.41
2023-03-30T07:29:20.235Z,97883.41
2023-03-30T07:31:51.672Z,97891.72
2023-03-30T07:34:19.849Z,97871.97
2023-03-30T07:36:52.495Z,97877.50
2023-03-30T07:39:19.591Z,97876.72
2023-03-30T07:41:48.104Z,97879.47
2023-03-30T07:44:14.904Z,97882.97
2023-03-30T07:46:41.647Z,97886.88
2023-03-30T07:49:13.649Z,97879.72
2023-03-30T07:51:40.361Z,97872.16
2023-03-30T07:54:13.631Z,97873.28
2023-03-30T07:56:57.245Z,97868.53
2023-03-30T07:59:24.423Z,97869.38
2023-03-30T08:01:57.027Z,97875.72
2023-03-30T08:04:45.616Z,97868.78
2023-03-30T08:07:16.575Z,97883.09
2023-03-30T08:09:45.806Z,97884.19
2023-03-30T08:12:12.300Z,97904.84
2023-03-30T08:14:39.118Z,97919.66
2023-03-30T08:17:05.572Z,97909.13
2023-03-30T08:19:32.082Z,97936.31
2023-03-30T08:22:01.626Z,97939.28
2023-03-30T08:24:28.126Z,97927.34
2023-03-30T08:26:54.612Z,97941.44
2023-03-30T08:29:21.315Z,97942.69
2023-03-30T08:31:47.995Z,97906.34
2023-03-30T08:34:14.550Z,97882.13
2023-03-30T08:36:41.002Z,97917.09
2023-03-30T08:39:07.519Z,97918.94
2023-03-30T08:41:52.685Z,97914.34
2023-03-30T08:44:36.805Z,97924.94
2023-03-30T08:47:09.314Z,97934.53
2023-03-30T08:49:42.432Z,97902.50
2023-03-30T08:52:19.180Z,97904.28
2023-03-30T08:54:45.909Z,97888.16
2023-03-30T08:57:27.534Z,97924.81
2023-03-30T09:00:19.900Z,97920.72
2023-03-30T09:02:50.563Z,97941.28
2023-03-30T09:05:31.299Z,97949.78
2023-03-30T09:08:04.655Z,97955.03
2023-03-30T09:10:41.616Z,97952.31
2023-03-30T09:13:12.191Z,97935.25
2023-03-30T09:15:52.276Z,97943.94
2023-03-30T09:18:34.674Z,97955.75
2023-03-30T09:21:05.854Z,97957.34
2023-03-30T09:23:34.200Z,97960.75
2023-03-30T09:26:04.905Z,97960.44
2023-03-30T09:28:57.337Z,97953.38
2023-03-30T09:31:41.318Z,97947.00
2023-03-30T09:34:34.024Z,97960.81
2023-03-30T09:37:03.488Z,97966.53
2023-03-30T09:39:33.398Z,97959.81
2023-03-30T09:42:24.519Z,97953.50
2023-03-30T09:44:59.834Z,97954.56
2023-03-30T09:47:28.740Z,97959.34
2023-03-30T09:49:57.606Z,97963.97
2023-03-30T09:52:29.850Z,97956.97
2023-03-30T09:54:57.261Z,97962.59
2023-03-30T09:57:27.232Z,97963.53
2023-03-30T09:59:55.903Z,97971.03
2023-03-30T10:02:25.391Z,97979.69
2023-03-30T10:04:56.225Z,97976.44
2023-03-30T10:07:29.049Z,97965.66
2023-03-30T10:09:57.202Z,97974.69
2023-03-30T10:12:26.088Z,97970.75
2023-03-30T10:15:00.960Z,97971.75
2023-03-30T10:17:28.648Z,97972.28
2023-03-30T10:20:17.777Z,97967.56
2023-03-30T10:22:56.378Z,97972.47
2023-03-30T10:25:27.444Z,97965.13
2023-03-30T10:27:57.275Z,97976.91
2023-03-30T10:30:27.055Z,97976.59
2023-03-30T10:32:57.065Z,97982.88
2023-03-30T10:35:26.358Z,97965.41
2023-03-30T10:37:56.795Z,97957.09
2023-03-30T10:40:33.960Z,97954.63
2023-03-30T10:43:01.304Z,97961.75
2023-03-30T10:45:34.454Z,97941.22
2023-03-30T10:48:13.302Z,97940.56
2023-03-30T10:50:46.399Z,97942.97
2023-03-30T10:53:21.743Z,97941.38
2023-03-30T10:56:07.315Z,97931.75
2023-03-30T10:59:12.911Z,97935.75
2023-03-30T11:02:02.545Z,97939.97
2023-03-30T11:04:47.256Z,97940.53
2023-03-30T11:07:47.931Z,97951.53
2023-03-30T11:10:21.909Z,97953.03
2023-03-30T11:12:56.230Z,97955.09
2023-03-30T11:15:31.099Z,97947.25
2023-03-30T11:18:04.192Z,97953.22
2023-03-30T11:20:50.656Z,97949.69
2023-03-30T11:23:27.897Z,97941.69
2023-03-30T11:26:08.755Z,97932.91
2023-03-30T11:28:54.265Z,97945.91
2023-03-30T11:31:42.494Z,97944.38
2023-03-30T11:34:32.088Z,97945.06
2023-03-30T11:37:12.650Z,97956.13
2023-03-30T11:39:45.422Z,97945.78
2023-03-30T11:42:17.653Z,97948.53
2023-03-30T11:44:44.161Z,97954.44
2023-03-30T11:47:24.920Z,97946.47
2023-03-30T11:50:23.117Z,97948.06
2023-03-30T11:53:06.418Z,97933.88
2023-03-30T11:55:59.565Z,97931.28
2023-03-30T11:58:47.616Z,97940.53
2023-03-30T12:01:46.500Z,97945.91
2023-03-30T12:04:16.259Z,97949.66
2023-03-30T12:07:00.797Z,97934.19
2023-03-30T12:09:53.571Z,97940.84
2023-03-30T12:12:32.722Z,97951.47
2023-03-30T12:15:29.586Z,97952.38
2023-03-30T12:17:58.448Z,97945.31
2023-03-30T12:20:31.761Z,97919.94
2023-03-30T12:23:22.401Z,97910.03
2023-03-30T12:26:27.444Z,97915.16
2023-03-30T12:29:26.288Z,97907.97
2023-03-30T12:31:51.207Z,97902.19
2023-03-30T12:34:18.510Z,97907.91
2023-03-30T12:36:53.198Z,97915.63
2023-03-30T12:39:26.209Z,97911.41
2023-03-30T12:42:04.285Z,97916.44
2023-03-30T12:44:37.114Z,97919.28
2023-03-30T12:47:23.602Z,97915.28
2023-03-30T12:50:13.240Z,97918.88
2023-03-30T12:52:42.699Z,97928.28
2023-03-30T12:55:30.213Z,97915.31
2023-03-30T12:58:01.827Z,97908.31
2023-03-30T13:00:50.930Z,97919.16
2023-03-30T13:03:33.323Z,97919.34
2023-03-30T13:06:02.121Z,97918.00
2023-03-30T13:08:37.146Z,97916.28
2023-03-30T13:11:26.995Z,97907.59
2023-03-30T13:13:57.885Z,97915.13
2023-03-30T13:16:50.214Z,97918.13
2023-03-30T13:19:41.161Z,97916.13
2023-03-30T13:22:10.647Z,97919.31
2023-03-30T13:24:44.687Z,97922.41
2023-03-30T13:27:14.288Z,97930.09
2023-03-30T13:30:03.493Z,97922.06
2023-03-30T13:32:59.427Z,97912.22
2023-03-30T13:35:35.295Z,97902.75
2023-03-30T13:38:23.386Z,97913.31
2023-03-30T13:41:08.346Z,97933.63
2023-03-30T13:43:53.404Z,97957.16
2023-03-30T13:46:41.827Z,97954.66
2023-03-30T13:49:35.120Z,97947.22
2023-03-30T13:52:12.129Z,97946.16
2023-03-30T13:54:40.710Z,97941.47
2023-03-30T13:57:11.491Z,97931.34
2023-03-30T13:59:47.047Z,97929.38
2023-03-30T14:02:19.255Z,97927.44
2023-03-30T14:04:45.958Z,97920.88
2023-03-30T14:07:16.696Z,97913.06
2023-03-30T14:10:02.059Z,97909.94
2023-03-30T14:12:28.629Z,97926.84
2023-03-30T14:14:55.087Z,97902.84
2023-03-30T14:17:24.672Z,97908.41
2023-03-30T14:19:53.981Z,97913.94
2023-03-30T14:22:26.413Z,97925.88
2023-03-30T14:25:01.601Z,97924.16
2023-03-30T14:27:36.809Z,97943.94
2023-03-30T14:30:18.828Z,97932.34
2023-03-30T14:32:45.512Z,97947.38
2023-03-30T14:35:18.698Z,97932.69
2023-03-30T14:37:51.668Z,97925.25
2023-03-30T14:40:20.277Z,97938.53
2023-03-30T14:42:47.085Z,97935.63
2023-03-30T14:45:17.787Z,97926.19
2023-03-30T14:47:46.738Z,97930.63
2023-03-30T14:50:16.740Z,97931.91
2023-03-30T14:52:46.892Z,97932.94
2023-03-30T14:55:21.201Z,97931.03
2023-03-30T14:57:48.699Z,97921.91
2023-03-30T15:00:21.408Z,97914.59
2023-03-30T15:03:00.653Z,97921.84
2023-03-30T15:05:32.386Z,97919.56
2023-03-30T15:07:58.925Z,97922.88
2023-03-30T15:10:28.288Z,97934.94
2023-03-30T15:12:57.736Z,97944.03
2023-03-30T15:15:29.715Z,97948.34
2023-03-30T15:17:56.912Z,97944.66
2023-03-30T15:20:26.597Z,97961.72
2023-03-30T15:22:53.931Z,97946.63
2023-03-30T15:25:24.014Z,97956.69
2023-03-30T15:27:58.282Z,97945.69
2023-03-30T15:30:32.961Z,97948.09
2023-03-30T15:32:59.723Z,97943.88
2023-03-30T15:35:29.063Z,97949.19
2023-03-30T15:38:00.290Z,97941.09
2023-03-30T15:40:27.040Z,97949.91
2023-03-30T15:43:33.345Z,97961.28
2023-03-30T15:46:07.823Z,97954.75
2023-03-30T15:48:43.082Z,97978.91
2023-03-30T15:51:28.197Z,98038.91
2023-03-30T15:54:01.492Z,98041.69
2023-03-30T15:56:38.668Z,98047.91
2023-03-30T15:59:06.171Z,98039.91
2023-03-30T16:01:51.002Z,97998.50
2023-03-30T16:04:21.903Z,98010.69
2023-03-30T16:06:48.394Z,98014.94
2023-03-30T16:09:16.063Z,98002.53
2023-03-30T16:11:45.360Z,97986.88
2023-03-30T16:14:19.956Z,97998.63
2023-03-30T16:16:47.791Z,98005.50
2023-03-30T16:19:17.873Z,97987.00
2023-03-30T16:21:45.613Z,97985.53
2023-03-30T16:24:12.657Z,97982.25
2023-03-30T16:26:39.172Z,97976.56
2023-03-30T16:29:14.264Z,97977.16
2023-03-30T16:31:40.809Z,97980.78
2023-03-30T16:34:07.261Z,97976.44
2023-03-30T16:36:34.525Z,97979.34
2023-03-30T16:39:01.023Z,97978.44
2023-03-30T16:41:27.558Z,97984.84
2023-03-30T16:43:54.085Z,97971.59
2023-03-30T16:46:20.657Z,97968.13
2023-03-30T16:48:47.891Z,97968.22
2023-03-30T16:51:15.347Z,97966.03
2023-03-30T16:53:42.666Z,97968.69
2023-03-30T16:56:17.641Z,97969.09
2023-03-30T16:58:44.780Z,97969.53
2023-03-30T17:01:13.311Z,97964.28
2023-03-30T17:03:40.360Z,97973.06
2023-03-30T17:06:08.128Z,97970.69
2023-03-30T17:08:34.832Z,97978.03
2023-03-30T17:11:07.613Z,97975.41
2023-03-30T17:13:34.874Z,97979.25
2023-03-30T17:16:02.818Z,97975.81
2023-03-30T17:18:29.760Z,97975.16
2023-03-30T17:20:57.821Z,97976.81
2023-03-30T17:23:26.322Z,98007.41
2023-03-30T17:25:54.541Z,98001.47
2023-03-30T17:28:24.184Z,98004.13
2023-03-30T17:30:53.160Z,98009.63
2023-03-30T17:33:20.118Z,98015.28
2023-03-30T17:35:50.732Z,98001.06
2023-03-30T17:38:17.690Z,97997.41
2023-03-30T17:40:44.818Z,98003.97
2023-03-30T17:43:12.224Z,97998.91
2023-03-30T17:45:39.370Z,98006.44
2023-03-30T17:48:07.526Z,98008.09
2023-03-30T17:50:36.837Z,98007.47
2023-03-30T17:53:03.546Z,98007.66
2023-03-30T17:55:32.570Z,98005.22
2023-03-30T17:57:59.732Z,98019.03
2023-03-30T18:00:32.408Z,98011.94
2023-03-30T18:03:00.297Z,98027.94
2023-03-30T18:05:29.337Z,98070.75
2023-03-30T18:07:56.071Z,98069.94
2023-03-30T18:10:28.408Z,98075.44
2023-03-30T18:12:55.494Z,98079.50
2023-03-30T18:15:30.473Z,98077.44
2023-03-30T18:17:58.715Z,98065.06
2023-03-30T18:20:32.894Z,98050.47
2023-03-30T18:23:00.330Z,98036.88
2023-03-30T18:25:32.396Z,98027.94
2023-03-30T18:28:00.985Z,98015.78
2023-03-30T18:30:36.849Z,98024.88
2023-03-30T18:33:04.600Z,98027.94
2023-03-30T18:35:32.854Z,98026.09
2023-03-30T18:37:59.305Z,98033.19
2023-03-30T18:40:33.071Z,98027.28
2023-03-30T18:43:00.373Z,98023.66
2023-03-30T18:45:33.888Z,98029.69
2023-03-30T18:48:01.898Z,98035.56
2023-03-30T18:50:31.450Z,98037.41
2023-03-30T18:52:57.964Z,98030.09
2023-03-30T18:55:25.565Z,98030.91
2023-03-30T18:57:52.593Z,98028.88
2023-03-30T19:00:24.073Z,98030.06
2023-03-30T19:02:50.937Z,98032.81
2023-03-30T19:05:18.839Z,98023.59
2023-03-30T19:07:45.809Z,98032.03
2023-03-30T19:10:15.716Z,98028.31
2023-03-30T19:12:42.907Z,98030.66
2023-03-30T19:15:38.813Z,98022.81
2023-03-30T19:18:06.153Z,98029.16
2023-03-30T19:20:34.974Z,98022.25
2023-03-30T19:23:01.575Z,98016.91
2023-03-30T19:25:28.385Z,98016.47
2023-03-30T19:28:03.347Z,98014.94
2023-03-30T19:30:33.640Z,98011.06
2023-03-30T19:33:03.710Z,98023.47
2023-03-30T19:35:30.940Z,98023.34
2023-03-30T19:37:57.489Z,98014.53
2023-03-30T19:40:24.537Z,98018.16
2023-03-30T19:42:51.687Z,98021.91
2023-03-30T19:45:21.090Z,98015.66
2023-03-30T19:47:47.624Z,98021.78
2023-03-30T19:50:17.968Z,98015.75
2023-03-30T19:52:50.601Z,98014.66
2023-03-30T19:55:19.278Z,98012.25
2023-03-30T19:57:45.987Z,98011.97
2023-03-30T20:00:18.131Z,98021.09
2023-03-30T20:02:47.667Z,98031.31
2023-03-30T20:05:15.349Z,98032.81
2023-03-30T20:07:43.283Z,98037.13
2023-03-30T20:10:13.772Z,98042.63
2023-03-30T20:12:40.326Z,98039.00
2023-03-30T20:15:08.214Z,98037.50
2023-03-30T20:17:36.337Z,98033.19
2023-03-30T20:20:07.067Z,98025.34
2023-03-30T20:22:36.073Z,98020.19
2023-03-30T20:25:03.334Z,98010.72
2023-03-30T20:27:29.821Z,98007.84
2023-03-30T20:29:56.262Z,98009.41
2023-03-30T20:32:22.866Z,97996.28
2023-03-30T20:34:49.390Z,98004.28
2023-03-30T20:37:16.149Z,97995.75
2023-03-30T20:39:43.073Z,97991.00
2023-03-30T20:42:09.939Z,97986.31
2023-03-30T20:44:39.503Z,97988.22
2023-03-30T20:47:08.508Z,97982.88
2023-03-30T20:49:35.086Z,97983.50
2023-03-30T20:52:01.633Z,97977.47
2023-03-30T20:54:29.088Z,97970.53
2023-03-30T20:56:55.664Z,97973.88
2023-03-30T20:59:22.734Z,97977.31
2023-03-30T21:01:51.823Z,97975.03
2023-03-30T21:04:19.514Z,97971.00
2023-03-30T21:06:46.774Z,97973.75
2023-03-30T21:09:13.636Z,97975.28
2023-03-30T21:11:40.440Z,97970.59
2023-03-30T21:14:10.349Z,97974.03
2023-03-30T21:16:41.929Z,97968.88
2023-03-30T21:19:09.458Z,97964.47
2023-03-30T21:21:37.564Z,97967.63
2023-03-30T21:24:05.879Z,97959.41
2023-03-30T21:26:32.876Z,97954.59
2023-03-30T21:28:59.332Z,97947.22
2023-03-30T21:31:25.945Z,97946.84
2023-03-30T21:33:52.807Z,97943.63
2023-03-30T21:36:19.393Z,97944.16
2023-03-30T21:38:46.347Z,97933.06
2023-03-30T21:41:16.018Z,97925.19
2023-03-30T21:43:45.099Z,97923.72
2023-03-30T21:46:13.887Z,97923.66
2023-03-30T21:48:41.909Z,97916.22
2023-03-30T21:51:13.607Z,97912.00
2023-03-30T21:53:42.034Z,97910.22
2023-03-30T21:56:09.467Z,97909.50
2023-03-30T21:58:35.936Z,97911.28
2023-03-30T22:01:11.699Z,97909.16
2023-03-30T22:03:39.531Z,97906.09
2023-03-30T22:06:08.518Z,97905.38
2023-03-30T22:08:35.759Z,97900.03
2023-03-30T22:11:08.460Z,97897.28
2023-03-30T22:13:35.239Z,97888.59
2023-03-30T22:16:06.203Z,97888.41
2023-03-30T22:18:33.697Z,97883.69
2023-03-30T22:21:03.762Z,97879.06
2023-03-30T22:23:31.330Z,97877.22
2023-03-30T22:25:58.981Z,97882.94
2023-03-30T22:28:25.882Z,97880.16
2023-03-30T22:30:52.430Z,97877.16
2023-03-30T22:33:19.302Z,97871.75
2023-03-30T22:35:48.110Z,97864.59
2023-03-30T22:38:16.121Z,97855.44
2023-03-30T22:40:42.996Z,97858.63
2023-03-30T22:43:10.976Z,97856.00
2023-03-30T22:45:38.305Z,97854.97
2023-03-30T22:48:05.581Z,97849.16
2023-03-30T22:50:33.726Z,97842.66
2023-03-30T22:53:00.264Z,97834.50
2023-03-30T22:55:26.716Z,97838.34
2023-03-30T22:57:54.031Z,97830.94
2023-03-30T23:00:21.104Z,97831.09
2023-03-30T23:02:49.242Z,97826.16
2023-03-30T23:05:16.054Z,97822.78
2023-03-30T23:07:44.221Z,97822.28
2023-03-30T23:10:15.270Z,97815.91
2023-03-30T23:12:42.988Z,97809.47
2023-03-30T23:15:10.952Z,97805.84
2023-03-30T23:17:38.115Z,97806.25
2023-03-30T23:20:06.592Z,97800.41
2023-03-30T23:22:33.067Z,97793.66
2023-03-30T23:24:59.553Z,97798.53
2023-03-30T23:27:26.068Z,97786.00
2023-03-30T23:29:55.845Z,97777.56
2023-03-30T23:32:22.293Z,97770.47
2023-03-30T23:34:48.753Z,97776.13
2023-03-30T23:37:15.263Z,97768.47
2023-03-30T23:39:41.707Z,97771.44
2023-03-30T23:42:08.194Z,97764.97
2023-03-30T23:44:34.768Z,97765.22
2023-03-30T23:47:02.205Z,97760.13
2023-03-30T23:49:28.836Z,97752.41
2023-03-30T23:51:55.565Z,97752.19
2023-03-30T23:54:22.204Z,97758.94
2023-03-30T23:56:49.043Z,97751.91
2023-03-30T23:59:16.077Z,97744.63
